Terminal Aerodrome Forecast
Issued by NWS Goodland, KS

Home | Current Version | Previous Version | Text Only | Print | Product List | Glossary On
Versions: 1 2 3 4 5 6 7 8 9 10 11 12 13 14 15 16 17 18
000
FTUS43 KGLD 062009 AAA
TAFGLD
TAF AMD
KGLD 062009Z 0620/0718 01015G25KT P6SM -SHRA SCT015 OVC025
      TEMPO 0620/0621 5SM BR BKN015
     FM062100 02015G25KT P6SM -SHRA BKN050
     FM070100 03008KT P6SM BKN100
     FM070600 VRB05KT P6SM SCT120
     FM071200 14010KT 6SM BR SCT120=

USA.gov is the U.S. government's official web portal to all federal, state and local government web resources and services.